sensor_id;sensor_type;location;lat;lon;timestamp;pressure;altitude;pressure_sealevel;temperature;humidity
19508;BME280;40157;42.566;27.526;2023-02-21T00:01:20;101218.97;;;5.46;73.17
19508;BME280;40157;42.566;27.526;2023-02-21T00:03:39;101220.91;;;5.50;73.42
19508;BME280;40157;42.566;27.526;2023-02-21T00:05:58;101190.91;;;5.38;73.33
19508;BME280;40157;42.566;27.526;2023-02-21T00:08:17;101191.00;;;5.40;73.08
19508;BME280;40157;42.566;27.526;2023-02-21T00:10:36;101160.81;;;5.24;73.32
19508;BME280;40157;42.566;27.526;2023-02-21T00:12:55;101190.44;;;5.47;73.02
19508;BME280;40157;42.566;27.526;2023-02-21T00:15:14;101175.84;;;5.51;72.85
19508;BME280;40157;42.566;27.526;2023-02-21T00:17:33;101171.34;;;5.47;72.59
19508;BME280;40157;42.566;27.526;2023-02-21T00:19:52;101161.91;;;5.49;72.39
19508;BME280;40157;42.566;27.526;2023-02-21T00:22:11;101175.41;;;5.61;72.23
19508;BME280;40157;42.566;27.526;2023-02-21T00:24:30;101160.81;;;5.44;72.38
19508;BME280;40157;42.566;27.526;2023-02-21T00:26:49;101160.38;;;5.54;72.39
19508;BME280;40157;42.566;27.526;2023-02-21T00:29:08;101119.50;;;5.30;72.73
19508;BME280;40157;42.566;27.526;2023-02-21T00:31:27;101145.78;;;5.36;72.94
19508;BME280;40157;42.566;27.526;2023-02-21T00:33:46;101146.50;;;5.34;73.15
19508;BME280;40157;42.566;27.526;2023-02-21T00:36:07;101136.25;;;5.37;73.28
19508;BME280;40157;42.566;27.526;2023-02-21T00:38:26;101138.91;;;5.38;73.80
19508;BME280;40157;42.566;27.526;2023-02-21T00:40:45;101122.22;;;5.33;74.05
19508;BME280;40157;42.566;27.526;2023-02-21T00:43:04;101107.13;;;5.25;74.34
19508;BME280;40157;42.566;27.526;2023-02-21T00:45:23;101121.28;;;5.31;74.63
19508;BME280;40157;42.566;27.526;2023-02-21T00:47:42;101108.75;;;5.23;74.80
19508;BME280;40157;42.566;27.526;2023-02-21T00:50:01;101109.66;;;5.23;74.88
19508;BME280;40157;42.566;27.526;2023-02-21T00:52:20;101120.22;;;5.28;74.80
19508;BME280;40157;42.566;27.526;2023-02-21T00:54:40;101107.59;;;5.16;75.34
19508;BME280;40157;42.566;27.526;2023-02-21T00:56:58;101117.81;;;5.11;75.68
19508;BME280;40157;42.566;27.526;2023-02-21T00:59:17;101094.53;;;5.14;76.04
19508;BME280;40157;42.566;27.526;2023-02-21T01:01:36;101085.72;;;5.11;76.68
19508;BME280;40157;42.566;27.526;2023-02-21T01:03:57;101095.50;;;5.16;76.84
19508;BME280;40157;42.566;27.526;2023-02-21T01:06:16;101095.22;;;5.10;76.95
19508;BME280;40157;42.566;27.526;2023-02-21T01:08:35;101081.44;;;5.11;77.41
19508;BME280;40157;42.566;27.526;2023-02-21T01:10:54;101093.72;;;5.15;77.30
19508;BME280;40157;42.566;27.526;2023-02-21T01:13:12;101068.16;;;5.05;77.46
19508;BME280;40157;42.566;27.526;2023-02-21T01:15:31;101083.88;;;5.08;77.13
19508;BME280;40157;42.566;27.526;2023-02-21T01:17:50;101063.03;;;5.07;77.26
19508;BME280;40157;42.566;27.526;2023-02-21T01:20:10;101077.09;;;5.12;77.04
19508;BME280;40157;42.566;27.526;2023-02-21T01:22:28;101062.09;;;5.06;77.37
19508;BME280;40157;42.566;27.526;2023-02-21T01:24:48;101040.94;;;4.97;77.36
19508;BME280;40157;42.566;27.526;2023-02-21T01:27:07;101063.03;;;5.07;77.75
19508;BME280;40157;42.566;27.526;2023-02-21T01:29:26;101052.41;;;5.02;77.71
19508;BME280;40157;42.566;27.526;2023-02-21T01:31:45;101049.31;;;5.11;78.31
19508;BME280;40157;42.566;27.526;2023-02-21T01:34:05;101044.28;;;5.14;78.04
19508;BME280;40157;42.566;27.526;2023-02-21T01:36:25;101066.34;;;5.24;78.47
19508;BME280;40157;42.566;27.526;2023-02-21T01:38:44;101047.50;;;5.29;78.00
19508;BME280;40157;42.566;27.526;2023-02-21T01:41:03;101046.84;;;5.33;77.88
19508;BME280;40157;42.566;27.526;2023-02-21T01:43:24;101054.06;;;5.41;77.50
19508;BME280;40157;42.566;27.526;2023-02-21T01:45:50;101055.16;;;5.46;77.67
19508;BME280;40157;42.566;27.526;2023-02-21T01:48:14;101030.41;;;5.34;77.48
19508;BME280;40157;42.566;27.526;2023-02-21T01:50:35;101052.75;;;5.50;77.43
19508;BME280;40157;42.566;27.526;2023-02-21T01:52:54;101009.91;;;5.21;77.42
19508;BME280;40157;42.566;27.526;2023-02-21T01:55:13;101047.34;;;5.46;77.68
19508;BME280;40157;42.566;27.526;2023-02-21T01:57:34;101022.59;;;5.34;77.60
19508;BME280;40157;42.566;27.526;2023-02-21T01:59:56;101048.44;;;5.51;77.75
19508;BME280;40157;42.566;27.526;2023-02-21T02:02:26;101038.88;;;5.50;77.59
19508;BME280;40157;42.566;27.526;2023-02-21T02:04:47;101038.28;;;5.57;77.35
19508;BME280;40157;42.566;27.526;2023-02-21T02:07:08;101037.34;;;5.55;77.19
19508;BME280;40157;42.566;27.526;2023-02-21T02:09:27;101026.03;;;5.54;77.21
19508;BME280;40157;42.566;27.526;2023-02-21T02:16:29;101037.97;;;5.70;76.12
19508;BME280;40157;42.566;27.526;2023-02-21T02:25:34;101043.03;;;5.88;74.91
19508;BME280;40157;42.566;27.526;2023-02-21T02:35:12;101012.94;;;5.95;74.02
19508;BME280;40157;42.566;27.526;2023-02-21T02:46:28;101027.53;;;6.13;72.88
19508;BME280;40157;42.566;27.526;2023-02-21T02:48:37;101028.66;;;6.19;72.45
19508;BME280;40157;42.566;27.526;2023-02-21T02:50:40;101034.97;;;6.26;72.38
19508;BME280;40157;42.566;27.526;2023-02-21T02:52:55;101014.63;;;6.16;72.03
19508;BME280;40157;42.566;27.526;2023-02-21T02:55:05;101018.34;;;6.22;71.75
19508;BME280;40157;42.566;27.526;2023-02-21T02:57:19;101019.59;;;6.32;71.48
19508;BME280;40157;42.566;27.526;2023-02-21T02:59:22;101055.75;;;6.47;71.10
19508;BME280;40157;42.566;27.526;2023-02-21T03:09:24;101057.75;;;6.54;70.54
19508;BME280;40157;42.566;27.526;2023-02-21T03:11:26;101053.97;;;6.46;70.57
19508;BME280;40157;42.566;27.526;2023-02-21T03:13:36;101053.69;;;6.38;70.73
19508;BME280;40157;42.566;27.526;2023-02-21T03:18:06;101038.88;;;6.37;70.07
19508;BME280;40157;42.566;27.526;2023-02-21T03:20:11;101042.09;;;6.30;69.83
19508;BME280;40157;42.566;27.526;2023-02-21T03:22:16;101051.25;;;6.20;69.41
19508;BME280;40157;42.566;27.526;2023-02-21T03:24:19;101002.53;;;5.95;69.40
19508;BME280;40157;42.566;27.526;2023-02-21T03:26:22;100996.81;;;5.83;69.24
19508;BME280;40157;42.566;27.526;2023-02-21T03:28:24;101033.91;;;5.98;69.51
19508;BME280;40157;42.566;27.526;2023-02-21T03:30:25;101034.88;;;6.00;69.44
19508;BME280;40157;42.566;27.526;2023-02-21T03:32:36;101038.09;;;5.95;69.62
19508;BME280;40157;42.566;27.526;2023-02-21T03:34:39;101033.63;;;5.92;70.08
19508;BME280;40157;42.566;27.526;2023-02-21T03:36:40;101037.50;;;5.81;70.10
19508;BME280;40157;42.566;27.526;2023-02-21T03:38:41;101037.19;;;5.94;70.34
19508;BME280;40157;42.566;27.526;2023-02-21T03:40:41;101049.25;;;5.92;70.27
19508;BME280;40157;42.566;27.526;2023-02-21T03:42:41;100990.28;;;5.70;70.67
19508;BME280;40157;42.566;27.526;2023-02-21T03:44:42;100984.28;;;5.72;70.57
19508;BME280;40157;42.566;27.526;2023-02-21T03:46:42;101021.34;;;5.88;70.75
19508;BME280;40157;42.566;27.526;2023-02-21T03:48:43;101039.25;;;6.01;70.51
19508;BME280;40157;42.566;27.526;2023-02-21T03:50:43;100975.78;;;5.77;70.82
19508;BME280;40157;42.566;27.526;2023-02-21T03:52:45;101020.31;;;6.05;70.67
19508;BME280;40157;42.566;27.526;2023-02-21T03:54:45;101003.06;;;5.86;70.72
19508;BME280;40157;42.566;27.526;2023-02-21T03:56:46;101008.56;;;5.94;70.79
19508;BME280;40157;42.566;27.526;2023-02-21T03:58:46;100917.28;;;5.44;70.63
19508;BME280;40157;42.566;27.526;2023-02-21T04:00:47;101027.66;;;6.16;70.48
19508;BME280;40157;42.566;27.526;2023-02-21T04:02:47;101041.59;;;6.18;70.42
19508;BME280;40157;42.566;27.526;2023-02-21T04:04:48;101023.44;;;6.19;70.15
19508;BME280;40157;42.566;27.526;2023-02-21T04:06:48;101034.88;;;6.23;70.17
19508;BME280;40157;42.566;27.526;2023-02-21T04:08:49;101006.00;;;6.17;70.31
19508;BME280;40157;42.566;27.526;2023-02-21T04:10:49;100986.72;;;6.11;69.72
19508;BME280;40157;42.566;27.526;2023-02-21T04:12:50;101002.09;;;6.28;69.65
19508;BME280;40157;42.566;27.526;2023-02-21T04:14:50;100944.78;;;6.04;69.60
19508;BME280;40157;42.566;27.526;2023-02-21T04:16:55;100954.53;;;6.09;69.28
19508;BME280;40157;42.566;27.526;2023-02-21T04:18:56;101011.19;;;6.39;69.04
19508;BME280;40157;42.566;27.526;2023-02-21T04:20:57;100966.97;;;6.17;68.46
19508;BME280;40157;42.566;27.526;2023-02-21T04:22:58;101035.28;;;6.56;68.39
19508;BME280;40157;42.566;27.526;2023-02-21T04:24:58;101017.13;;;6.58;68.13
19508;BME280;40157;42.566;27.526;2023-02-21T04:26:59;101001.38;;;6.55;67.83
19508;BME280;40157;42.566;27.526;2023-02-21T04:29:00;101039.63;;;6.80;66.88
19508;BME280;40157;42.566;27.526;2023-02-21T04:31:00;100935.13;;;6.24;66.33
19508;BME280;40157;42.566;27.526;2023-02-21T04:33:02;100974.03;;;6.43;65.90
19508;BME280;40157;42.566;27.526;2023-02-21T04:35:03;100970.75;;;6.49;65.43
19508;BME280;40157;42.566;27.526;2023-02-21T04:37:03;101035.28;;;6.80;65.31
19508;BME280;40157;42.566;27.526;2023-02-21T04:39:04;101028.53;;;6.85;65.38
19508;BME280;40157;42.566;27.526;2023-02-21T04:41:06;101029.56;;;6.91;64.91
19508;BME280;40157;42.566;27.526;2023-02-21T04:43:06;101025.53;;;6.99;64.70
19508;BME280;40157;42.566;27.526;2023-02-21T04:45:07;101018.22;;;6.89;64.36
19508;BME280;40157;42.566;27.526;2023-02-21T04:47:08;101021.09;;;6.96;64.12
19508;BME280;40157;42.566;27.526;2023-02-21T04:49:13;101031.19;;;7.11;63.99
19508;BME280;40157;42.566;27.526;2023-02-21T04:51:22;100948.25;;;6.75;63.50
19508;BME280;40157;42.566;27.526;2023-02-21T04:53:23;100942.81;;;6.69;63.28
19508;BME280;40157;42.566;27.526;2023-02-21T04:55:23;100968.28;;;6.76;63.21
19508;BME280;40157;42.566;27.526;2023-02-21T04:57:25;100982.72;;;6.92;63.70
19508;BME280;40157;42.566;27.526;2023-02-21T04:59:26;100980.34;;;6.98;63.63
19508;BME280;40157;42.566;27.526;2023-02-21T05:01:28;101012.88;;;7.10;63.40
19508;BME280;40157;42.566;27.526;2023-02-21T05:03:30;100928.84;;;6.67;63.35
19508;BME280;40157;42.566;27.526;2023-02-21T05:05:30;101006.97;;;7.15;66.71
19508;BME280;40157;42.566;27.526;2023-02-21T05:07:31;100974.38;;;7.02;69.06
19508;BME280;40157;42.566;27.526;2023-02-21T05:09:31;101009.28;;;7.06;67.52
19508;BME280;40157;42.566;27.526;2023-02-21T05:11:33;101009.47;;;6.87;67.38
19508;BME280;40157;42.566;27.526;2023-02-21T05:13:34;101007.66;;;6.85;67.16
19508;BME280;40157;42.566;27.526;2023-02-21T05:15:34;100980.75;;;6.85;67.61
19508;BME280;40157;42.566;27.526;2023-02-21T05:17:35;100970.72;;;6.72;67.34
19508;BME280;40157;42.566;27.526;2023-02-21T05:19:35;101000.03;;;6.90;67.25
19508;BME280;40157;42.566;27.526;2023-02-21T05:21:36;100984.59;;;6.96;67.16
19508;BME280;40157;42.566;27.526;2023-02-21T05:23:38;100975.53;;;6.85;67.01
19508;BME280;40157;42.566;27.526;2023-02-21T05:25:39;100999.56;;;7.02;67.23
19508;BME280;40157;42.566;27.526;2023-02-21T05:27:39;100954.63;;;6.83;66.84
19508;BME280;40157;42.566;27.526;2023-02-21T05:29:41;100984.81;;;7.02;66.54
19508;BME280;40157;42.566;27.526;2023-02-21T05:31:45;100971.31;;;6.89;66.48
19508;BME280;40157;42.566;27.526;2023-02-21T05:33:45;100953.22;;;6.69;66.53
19508;BME280;40157;42.566;27.526;2023-02-21T05:35:46;100988.59;;;6.87;66.62
19508;BME280;40157;42.566;27.526;2023-02-21T05:37:47;101000.38;;;7.01;66.13
19508;BME280;40157;42.566;27.526;2023-02-21T05:39:50;100896.72;;;6.42;66.36
19508;BME280;40157;42.566;27.526;2023-02-21T05:41:51;101010.94;;;7.04;66.34
19508;BME280;40157;42.566;27.526;2023-02-21T05:43:51;101003.09;;;7.04;66.16
19508;BME280;40157;42.566;27.526;2023-02-21T05:45:52;101003.16;;;7.06;66.00
19508;BME280;40157;42.566;27.526;2023-02-21T05:47:52;100981.91;;;6.93;66.20
19508;BME280;40157;42.566;27.526;2023-02-21T05:49:57;101014.69;;;7.12;66.45
19508;BME280;40157;42.566;27.526;2023-02-21T05:51:58;100996.69;;;6.94;66.64
19508;BME280;40157;42.566;27.526;2023-02-21T05:53:58;101022.56;;;7.14;66.63
19508;BME280;40157;42.566;27.526;2023-02-21T05:55:59;101022.63;;;7.15;66.51
19508;BME280;40157;42.566;27.526;2023-02-21T05:57:59;101009.28;;;7.06;66.17
19508;BME280;40157;42.566;27.526;2023-02-21T06:00:00;100941.06;;;6.68;66.33
19508;BME280;40157;42.566;27.526;2023-02-21T06:02:00;101032.94;;;7.12;66.14
19508;BME280;40157;42.566;27.526;2023-02-21T06:04:01;100934.88;;;6.66;66.22
19508;BME280;40157;42.566;27.526;2023-02-21T06:06:02;101020.94;;;7.17;66.32
19508;BME280;40157;42.566;27.526;2023-02-21T06:08:03;101011.22;;;7.12;66.66
19508;BME280;40157;42.566;27.526;2023-02-21T06:10:04;101016.66;;;7.18;66.40
19508;BME280;40157;42.566;27.526;2023-02-21T06:12:04;101019.19;;;7.16;66.65
19508;BME280;40157;42.566;27.526;2023-02-21T06:14:08;100951.91;;;6.80;66.42
19508;BME280;40157;42.566;27.526;2023-02-21T06:16:12;101006.88;;;7.12;66.44
19508;BME280;40157;42.566;27.526;2023-02-21T06:18:13;101032.59;;;7.27;66.40
19508;BME280;40157;42.566;27.526;2023-02-21T06:20:14;101015.25;;;7.29;66.03
19508;BME280;40157;42.566;27.526;2023-02-21T06:22:15;101007.50;;;7.31;65.95
19508;BME280;40157;42.566;27.526;2023-02-21T06:24:16;101003.84;;;7.26;65.61
19508;BME280;40157;42.566;27.526;2023-02-21T06:26:18;100921.16;;;6.96;65.58
19508;BME280;40157;42.566;27.526;2023-02-21T06:28:19;101025.88;;;7.59;65.46
19508;BME280;40157;42.566;27.526;2023-02-21T06:30:19;100970.66;;;7.47;65.22
19508;BME280;40157;42.566;27.526;2023-02-21T06:32:20;101016.13;;;7.81;64.63
19508;BME280;40157;42.566;27.526;2023-02-21T06:34:20;101009.22;;;7.83;64.13
19508;BME280;40157;42.566;27.526;2023-02-21T06:36:23;100918.38;;;7.44;63.00
19508;BME280;40157;42.566;27.526;2023-02-21T06:38:24;100975.50;;;7.91;63.05
19508;BME280;40157;42.566;27.526;2023-02-21T06:40:24;100995.41;;;8.14;62.22
19508;BME280;40157;42.566;27.526;2023-02-21T06:42:25;100979.44;;;8.05;62.06
19508;BME280;40157;42.566;27.526;2023-02-21T06:44:25;100921.25;;;7.81;61.49
19508;BME280;40157;42.566;27.526;2023-02-21T06:46:28;101012.09;;;8.48;61.61
19508;BME280;40157;42.566;27.526;2023-02-21T06:48:29;100990.09;;;8.42;60.93
19508;BME280;40157;42.566;27.526;2023-02-21T06:50:30;100994.66;;;8.47;59.95
19508;BME280;40157;42.566;27.526;2023-02-21T06:52:30;101007.16;;;8.58;60.07
19508;BME280;40157;42.566;27.526;2023-02-21T06:54:31;101041.75;;;8.79;59.79
19508;BME280;40157;42.566;27.526;2023-02-21T06:56:31;101024.34;;;8.80;59.51
19508;BME280;40157;42.566;27.526;2023-02-21T06:58:32;101010.34;;;8.78;59.84
19508;BME280;40157;42.566;27.526;2023-02-21T07:00:33;101011.63;;;8.94;59.67
19508;BME280;40157;42.566;27.526;2023-02-21T07:02:33;101021.41;;;8.99;60.16
19508;BME280;40157;42.566;27.526;2023-02-21T07:04:34;100920.63;;;8.47;60.32
19508;BME280;40157;42.566;27.526;2023-02-21T07:06:34;101015.66;;;9.14;60.24
19508;BME280;40157;42.566;27.526;2023-02-21T07:08:35;101011.34;;;9.15;59.90
19508;BME280;40157;42.566;27.526;2023-02-21T07:10:35;101006.97;;;9.15;58.65
19508;BME280;40157;42.566;27.526;2023-02-21T07:12:36;100980.78;;;9.14;58.41
19508;BME280;40157;42.566;27.526;2023-02-21T07:14:36;100973.97;;;9.20;58.32
19508;BME280;40157;42.566;27.526;2023-02-21T07:16:37;100982.03;;;9.28;57.71
19508;BME280;40157;42.566;27.526;2023-02-21T07:18:37;100970.03;;;9.36;57.97
19508;BME280;40157;42.566;27.526;2023-02-21T07:20:38;101003.72;;;9.59;57.87
19508;BME280;40157;42.566;27.526;2023-02-21T07:22:38;100974.00;;;9.57;57.78
19508;BME280;40157;42.566;27.526;2023-02-21T07:24:39;100951.25;;;9.53;56.80
19508;BME280;40157;42.566;27.526;2023-02-21T07:26:40;100967.22;;;9.65;57.00
19508;BME280;40157;42.566;27.526;2023-02-21T07:28:41;100995.00;;;9.95;57.68
19508;BME280;40157;42.566;27.526;2023-02-21T07:30:42;100964.28;;;9.88;57.28
19508;BME280;40157;42.566;27.526;2023-02-21T07:32:42;100937.78;;;9.75;56.89
19508;BME280;40157;42.566;27.526;2023-02-21T07:34:43;100996.25;;;10.12;55.91
19508;BME280;40157;42.566;27.526;2023-02-21T07:36:43;100993.34;;;10.38;56.40
19508;BME280;40157;42.566;27.526;2023-02-21T07:38:44;100969.44;;;10.24;56.81
19508;BME280;40157;42.566;27.526;2023-02-21T07:40:45;101005.03;;;10.54;56.21
19508;BME280;40157;42.566;27.526;2023-02-21T07:42:45;100914.19;;;10.13;55.64
19508;BME280;40157;42.566;27.526;2023-02-21T07:44:47;100972.09;;;10.67;55.09
19508;BME280;40157;42.566;27.526;2023-02-21T07:46:48;100931.34;;;10.40;54.68
19508;BME280;40157;42.566;27.526;2023-02-21T07:48:48;100979.59;;;10.92;54.46
19508;BME280;40157;42.566;27.526;2023-02-21T07:50:48;100907.34;;;10.63;54.82
19508;BME280;40157;42.566;27.526;2023-02-21T07:52:49;101002.84;;;11.21;53.90
19508;BME280;40157;42.566;27.526;2023-02-21T07:54:50;100926.47;;;11.06;52.58
19508;BME280;40157;42.566;27.526;2023-02-21T07:56:50;100989.34;;;11.52;53.17
19508;BME280;40157;42.566;27.526;2023-02-21T07:58:51;100988.63;;;11.60;52.18
19508;BME280;40157;42.566;27.526;2023-02-21T08:00:51;100968.50;;;11.59;51.38
19508;BME280;40157;42.566;27.526;2023-02-21T08:02:54;101000.34;;;11.81;50.87
19508;BME280;40157;42.566;27.526;2023-02-21T08:04:55;101014.56;;;11.94;49.53
19508;BME280;40157;42.566;27.526;2023-02-21T08:06:59;100970.69;;;11.90;49.58
19508;BME280;40157;42.566;27.526;2023-02-21T08:09:00;100889.59;;;11.52;49.25
19508;BME280;40157;42.566;27.526;2023-02-21T08:11:00;100895.00;;;11.62;49.61
19508;BME280;40157;42.566;27.526;2023-02-21T08:13:01;100903.19;;;11.84;49.81
19508;BME280;40157;42.566;27.526;2023-02-21T08:15:01;100950.94;;;12.15;49.76
19508;BME280;40157;42.566;27.526;2023-02-21T08:17:04;100952.09;;;12.38;49.63
19508;BME280;40157;42.566;27.526;2023-02-21T08:19:04;100960.16;;;12.54;49.59
19508;BME280;40157;42.566;27.526;2023-02-21T08:21:10;100962.06;;;12.67;49.16
19508;BME280;40157;42.566;27.526;2023-02-21T08:23:10;100940.16;;;12.67;49.04
19508;BME280;40157;42.566;27.526;2023-02-21T08:25:13;100960.63;;;12.94;48.81
19508;BME280;40157;42.566;27.526;2023-02-21T08:27:13;100914.91;;;12.83;48.30
19508;BME280;40157;42.566;27.526;2023-02-21T08:29:14;100919.38;;;12.93;48.46
19508;BME280;40157;42.566;27.526;2023-02-21T08:31:17;100954.81;;;13.27;47.72
19508;BME280;40157;42.566;27.526;2023-02-21T08:33:18;100950.41;;;13.28;47.48
19508;BME280;40157;42.566;27.526;2023-02-21T08:35:19;100924.06;;;13.26;47.18
19508;BME280;40157;42.566;27.526;2023-02-21T08:37:19;100954.16;;;13.55;47.40
19508;BME280;40157;42.566;27.526;2023-02-21T08:39:20;100905.91;;;13.60;46.22
19508;BME280;40157;42.566;27.526;2023-02-21T08:41:20;100917.47;;;13.87;45.86
19508;BME280;40157;42.566;27.526;2023-02-21T08:43:21;100892.84;;;13.77;44.08
19508;BME280;40157;42.566;27.526;2023-02-21T08:45:23;100922.94;;;14.19;43.03
19508;BME280;40157;42.566;27.526;2023-02-21T08:47:24;100857.78;;;13.94;43.19
19508;BME280;40157;42.566;27.526;2023-02-21T08:49:24;100894.84;;;14.37;42.94
19508;BME280;40157;42.566;27.526;2023-02-21T08:51:26;100928.34;;;14.56;42.36
19508;BME280;40157;42.566;27.526;2023-02-21T08:53:26;100909.06;;;14.60;42.39
19508;BME280;40157;42.566;27.526;2023-02-21T08:55:27;100916.13;;;14.74;42.22
19508;BME280;40157;42.566;27.526;2023-02-21T08:57:27;100879.13;;;14.65;42.23
19508;BME280;40157;42.566;27.526;2023-02-21T08:59:28;100887.97;;;14.79;41.83
19508;BME280;40157;42.566;27.526;2023-02-21T09:01:33;100917.88;;;14.93;42.04
19508;BME280;40157;42.566;27.526;2023-02-21T09:03:34;100887.09;;;14.88;41.91
19508;BME280;40157;42.566;27.526;2023-02-21T09:05:35;100884.47;;;14.92;41.10
19508;BME280;40157;42.566;27.526;2023-02-21T09:07:41;100852.78;;;14.89;40.98
19508;BME280;40157;42.566;27.526;2023-02-21T09:09:45;100832.53;;;14.93;41.08
19508;BME280;40157;42.566;27.526;2023-02-21T09:11:45;100878.31;;;15.26;41.31
19508;BME280;40157;42.566;27.526;2023-02-21T09:13:48;100863.31;;;15.35;41.41
19508;BME280;40157;42.566;27.526;2023-02-21T09:15:49;100884.44;;;15.56;40.62
19508;BME280;40157;42.566;27.526;2023-02-21T09:17:50;100885.25;;;15.70;40.09
19508;BME280;40157;42.566;27.526;2023-02-21T09:19:51;100852.69;;;15.60;39.59
19508;BME280;40157;42.566;27.526;2023-02-21T09:21:52;100806.06;;;15.39;38.96
19508;BME280;40157;42.566;27.526;2023-02-21T09:23:56;100882.59;;;15.93;39.16
19508;BME280;40157;42.566;27.526;2023-02-21T09:25:58;100873.78;;;15.97;39.06
19508;BME280;40157;42.566;27.526;2023-02-21T09:27:58;100916.06;;;16.00;38.58
19508;BME280;40157;42.566;27.526;2023-02-21T09:30:16;100841.19;;;15.87;38.24
19508;BME280;40157;42.566;27.526;2023-02-21T09:32:17;100849.06;;;16.01;38.32
19508;BME280;40157;42.566;27.526;2023-02-21T09:34:17;100850.78;;;16.10;38.29
19508;BME280;40157;42.566;27.526;2023-02-21T09:36:18;100820.84;;;16.03;38.53
19508;BME280;40157;42.566;27.526;2023-02-21T09:38:22;100839.22;;;16.30;38.33
19508;BME280;40157;42.566;27.526;2023-02-21T09:40:40;100847.16;;;16.34;38.02
19508;BME280;40157;42.566;27.526;2023-02-21T09:42:41;100825.97;;;16.37;37.12
19508;BME280;40157;42.566;27.526;2023-02-21T09:44:43;100760.91;;;16.05;37.23
19508;BME280;40157;42.566;27.526;2023-02-21T09:46:49;100745.88;;;16.11;37.18
19508;BME280;40157;42.566;27.526;2023-02-21T09:48:52;100808.97;;;16.68;37.54
19508;BME280;40157;42.566;27.526;2023-02-21T09:50:55;100813.31;;;16.76;37.30
19508;BME280;40157;42.566;27.526;2023-02-21T09:52:58;100801.03;;;16.69;36.90
19508;BME280;40157;42.566;27.526;2023-02-21T09:55:47;100771.81;;;16.80;36.49
19508;BME280;40157;42.566;27.526;2023-02-21T09:57:23;100793.78;;;16.96;36.33
19508;BME280;40157;42.566;27.526;2023-02-21T09:59:23;100784.03;;;16.99;35.99
19508;BME280;40157;42.566;27.526;2023-02-21T10:03:47;100803.41;;;17.06;36.12
19508;BME280;40157;42.566;27.526;2023-02-21T10:08:11;100797.00;;;17.29;35.30
19508;BME280;40157;42.566;27.526;2023-02-21T10:10:20;100806.56;;;17.42;35.37
19508;BME280;40157;42.566;27.526;2023-02-21T10:12:30;100777.28;;;17.51;34.98
19508;BME280;40157;42.566;27.526;2023-02-21T10:19:03;100756.69;;;17.75;35.42
19508;BME280;40157;42.566;27.526;2023-02-21T10:21:21;100751.34;;;17.76;34.34
19508;BME280;40157;42.566;27.526;2023-02-21T10:23:31;100708.31;;;17.57;34.09
19508;BME280;40157;42.566;27.526;2023-02-21T10:25:35;100780.25;;;18.00;34.14
19508;BME280;40157;42.566;27.526;2023-02-21T10:27:38;100760.84;;;17.98;33.82
19508;BME280;40157;42.566;27.526;2023-02-21T10:30:04;100751.72;;;18.17;33.35
19508;BME280;40157;42.566;27.526;2023-02-21T10:32:08;100743.66;;;18.22;33.19
19508;BME280;40157;42.566;27.526;2023-02-21T10:34:25;100712.22;;;17.97;31.22
19508;BME280;40157;42.566;27.526;2023-02-21T10:36:26;100698.66;;;18.17;31.15
19508;BME280;40157;42.566;27.526;2023-02-21T10:38:27;100700.66;;;18.01;31.58
19508;BME280;40157;42.566;27.526;2023-02-21T10:40:54;100735.56;;;18.33;30.83
19508;BME280;40157;42.566;27.526;2023-02-21T10:45:10;100666.84;;;18.14;30.95
19508;BME280;40157;42.566;27.526;2023-02-21T10:47:24;100661.50;;;18.17;30.44
19508;BME280;40157;42.566;27.526;2023-02-21T10:50:07;100719.31;;;18.51;31.05
19508;BME280;40157;42.566;27.526;2023-02-21T10:54:21;100697.78;;;18.68;33.20
19508;BME280;40157;42.566;27.526;2023-02-21T10:56:26;100669.47;;;18.68;30.80
19508;BME280;40157;42.566;27.526;2023-02-21T10:58:28;100707.09;;;18.95;32.75
19508;BME280;40157;42.566;27.526;2023-02-21T11:02:37;100676.03;;;18.97;32.48
19508;BME280;40157;42.566;27.526;2023-02-21T11:04:41;100663.22;;;18.71;32.06
19508;BME280;40157;42.566;27.526;2023-02-21T11:06:48;100668.47;;;18.74;32.13
19508;BME280;40157;42.566;27.526;2023-02-21T11:08:50;100655.44;;;18.60;31.54
19508;BME280;40157;42.566;27.526;2023-02-21T11:10:53;100672.78;;;18.80;31.16
19508;BME280;40157;42.566;27.526;2023-02-21T11:13:05;100642.03;;;18.66;31.41
19508;BME280;40157;42.566;27.526;2023-02-21T11:15:17;100668.97;;;18.96;31.26
19508;BME280;40157;42.566;27.526;2023-02-21T11:17:36;100630.75;;;18.55;31.24
19508;BME280;40157;42.566;27.526;2023-02-21T11:21:54;100667.03;;;19.04;30.88
19508;BME280;40157;42.566;27.526;2023-02-21T11:23:58;100663.97;;;19.25;30.98
19508;BME280;40157;42.566;27.526;2023-02-21T11:26:10;100662.81;;;19.36;30.86
19508;BME280;40157;42.566;27.526;2023-02-21T11:30:20;100644.88;;;19.48;30.45
19508;BME280;40157;42.566;27.526;2023-02-21T11:32:30;100670.06;;;19.72;29.58
19508;BME280;40157;42.566;27.526;2023-02-21T11:34:32;100668.16;;;19.78;30.22
19508;BME280;40157;42.566;27.526;2023-02-21T11:36:35;100638.34;;;19.61;30.10
19508;BME280;40157;42.566;27.526;2023-02-21T11:38:44;100671.56;;;19.85;29.36
19508;BME280;40157;42.566;27.526;2023-02-21T11:40:50;100585.59;;;19.42;29.73
19508;BME280;40157;42.566;27.526;2023-02-21T11:42:50;100620.34;;;19.75;29.90
19508;BME280;40157;42.566;27.526;2023-02-21T11:45:27;100642.59;;;20.09;29.74
19508;BME280;40157;42.566;27.526;2023-02-21T11:47:34;100645.78;;;20.23;30.21
19508;BME280;40157;42.566;27.526;2023-02-21T11:50:16;100639.66;;;20.20;30.87
19508;BME280;40157;42.566;27.526;2023-02-21T11:52:37;100644.97;;;20.20;29.90
19508;BME280;40157;42.566;27.526;2023-02-21T11:54:39;100641.09;;;20.33;28.28